sensor_id;sensor_type;location;lat;lon;timestamp;pressure;altitude;pressure_sealevel;temperature;humidity
45894;BME280;31603;51.148;16.932;2022-12-18T00:01:21;101782.91;;;-4.23;100.00
45894;BME280;31603;51.148;16.932;2022-12-18T00:04:01;101705.75;;;-4.56;100.00
45894;BME280;31603;51.148;16.932;2022-12-18T00:06:38;101715.88;;;-4.44;100.00
45894;BME280;31603;51.148;16.932;2022-12-18T00:09:25;101742.44;;;-4.38;100.00
45894;BME280;31603;51.148;16.932;2022-12-18T00:11:52;101797.44;;;-3.93;100.00
45894;BME280;31603;51.148;16.932;2022-12-18T00:14:18;101731.69;;;-4.38;100.00
45894;BME280;31603;51.148;16.932;2022-12-18T00:16:52;101762.34;;;-4.07;100.00
45894;BME280;31603;51.148;16.932;2022-12-18T00:19:51;101736.88;;;-4.52;100.00
45894;BME280;31603;51.148;16.932;2022-12-18T00:22:19;101797.63;;;-3.96;100.00
45894;BME280;31603;51.148;16.932;2022-12-18T00:25:06;101727.97;;;-4.52;100.00
45894;BME280;31603;51.148;16.932;2022-12-18T00:27:50;101769.59;;;-4.44;100.00
45894;BME280;31603;51.148;16.932;2022-12-18T00:30:16;101804.97;;;-4.17;100.00
45894;BME280;31603;51.148;16.932;2022-12-18T00:33:04;101765.34;;;-4.30;100.00
45894;BME280;31603;51.148;16.932;2022-12-18T00:35:47;101778.16;;;-4.36;100.00
45894;BME280;31603;51.148;16.932;2022-12-18T00:38:16;101805.97;;;-4.19;100.00
45894;BME280;31603;51.148;16.932;2022-12-18T00:40:59;101731.69;;;-4.38;100.00
45894;BME280;31603;51.148;16.932;2022-12-18T00:43:49;101667.72;;;-5.00;100.00
45894;BME280;31603;51.148;16.932;2022-12-18T00:46:15;101806.94;;;-3.68;100.00
45894;BME280;31603;51.148;16.932;2022-12-18T00:48:41;101817.69;;;-3.85;100.00
45894;BME280;31603;51.148;16.932;2022-12-18T00:51:20;101801.63;;;-4.22;100.00
45894;BME280;31603;51.148;16.932;2022-12-18T00:54:17;101837.69;;;-3.56;100.00
45894;BME280;31603;51.148;16.932;2022-12-18T00:57:04;101704.03;;;-4.57;100.00
45894;BME280;31603;51.148;16.932;2022-12-18T00:59:48;101687.59;;;-4.51;100.00
45894;BME280;31603;51.148;16.932;2022-12-18T01:02:17;101811.63;;;-3.54;100.00
45894;BME280;31603;51.148;16.932;2022-12-18T01:05:14;101849.72;;;-3.46;100.00
45894;BME280;31603;51.148;16.932;2022-12-18T01:08:14;101803.81;;;-3.59;100.00
45894;BME280;31603;51.148;16.932;2022-12-18T01:10:42;101827.50;;;-3.67;100.00
45894;BME280;31603;51.148;16.932;2022-12-18T01:13:17;101870.19;;;-3.78;100.00
45894;BME280;31603;51.148;16.932;2022-12-18T01:15:48;101845.91;;;-3.94;100.00
45894;BME280;31603;51.148;16.932;2022-12-18T01:18:15;101788.41;;;-4.26;100.00
45894;BME280;31603;51.148;16.932;2022-12-18T01:20:41;101838.28;;;-3.17;100.00
45894;BME280;31603;51.148;16.932;2022-12-18T01:23:22;101834.69;;;-3.68;100.00
45894;BME280;31603;51.148;16.932;2022-12-18T01:26:16;101869.00;;;-4.26;100.00
45894;BME280;31603;51.148;16.932;2022-12-18T01:28:53;101893.28;;;-3.74;100.00
45894;BME280;31603;51.148;16.932;2022-12-18T01:31:27;101736.69;;;-4.66;100.00
45894;BME280;31603;51.148;16.932;2022-12-18T01:34:06;101890.59;;;-3.92;100.00
45894;BME280;31603;51.148;16.932;2022-12-18T01:36:34;101854.06;;;-4.51;100.00
45894;BME280;31603;51.148;16.932;2022-12-18T01:39:11;101833.59;;;-4.34;100.00
45894;BME280;31603;51.148;16.932;2022-12-18T01:41:52;101837.16;;;-4.53;100.00
45894;BME280;31603;51.148;16.932;2022-12-18T01:44:54;101890.56;;;-3.55;100.00
45894;BME280;31603;51.148;16.932;2022-12-18T01:47:44;101812.72;;;-3.76;100.00
45894;BME280;31603;51.148;16.932;2022-12-18T01:50:18;101861.13;;;-4.12;100.00
45894;BME280;31603;51.148;16.932;2022-12-18T01:53:05;101850.34;;;-3.93;100.00
45894;BME280;31603;51.148;16.932;2022-12-18T01:55:55;101821.81;;;-3.44;100.00
45894;BME280;31603;51.148;16.932;2022-12-18T01:58:43;101921.63;;;-3.50;100.00
45894;BME280;31603;51.148;16.932;2022-12-18T02:01:12;101822.41;;;-4.08;100.00
45894;BME280;31603;51.148;16.932;2022-12-18T02:03:45;101915.72;;;-3.39;100.00
45894;BME280;31603;51.148;16.932;2022-12-18T02:06:21;101902.34;;;-3.41;100.00
45894;BME280;31603;51.148;16.932;2022-12-18T02:09:06;101909.81;;;-3.12;100.00
45894;BME280;31603;51.148;16.932;2022-12-18T02:11:56;101818.31;;;-4.15;100.00
45894;BME280;31603;51.148;16.932;2022-12-18T02:14:34;101896.00;;;-3.22;100.00
45894;BME280;31603;51.148;16.932;2022-12-18T02:17:11;101898.94;;;-3.27;100.00
45894;BME280;31603;51.148;16.932;2022-12-18T02:19:55;101907.78;;;-3.42;100.00
45894;BME280;31603;51.148;16.932;2022-12-18T02:22:41;101781.59;;;-4.70;100.00
45894;BME280;31603;51.148;16.932;2022-12-18T02:25:23;101839.97;;;-4.01;100.00
45894;BME280;31603;51.148;16.932;2022-12-18T02:28:13;101914.78;;;-2.87;100.00
45894;BME280;31603;51.148;16.932;2022-12-18T02:30:42;101880.19;;;-3.63;100.00
45894;BME280;31603;51.148;16.932;2022-12-18T02:33:16;101861.63;;;-4.04;100.00
45894;BME280;31603;51.148;16.932;2022-12-18T02:36:00;101837.06;;;-4.32;100.00
45894;BME280;31603;51.148;16.932;2022-12-18T02:38:34;101827.94;;;-4.28;100.00
45894;BME280;31603;51.148;16.932;2022-12-18T02:41:04;101821.97;;;-3.99;100.00
45894;BME280;31603;51.148;16.932;2022-12-18T02:43:48;101882.69;;;-3.95;100.00
45894;BME280;31603;51.148;16.932;2022-12-18T02:46:29;101906.91;;;-3.60;100.00
45894;BME280;31603;51.148;16.932;2022-12-18T02:49:09;101773.16;;;-4.26;100.00
45894;BME280;31603;51.148;16.932;2022-12-18T02:51:52;101763.59;;;-4.49;100.00
45894;BME280;31603;51.148;16.932;2022-12-18T02:54:35;101890.47;;;-3.54;100.00
45894;BME280;31603;51.148;16.932;2022-12-18T02:57:16;101921.44;;;-2.95;100.00
45894;BME280;31603;51.148;16.932;2022-12-18T02:59:58;101838.25;;;-3.50;100.00
45894;BME280;31603;51.148;16.932;2022-12-18T03:02:36;101862.78;;;-3.73;100.00
45894;BME280;31603;51.148;16.932;2022-12-18T03:05:30;101768.00;;;-4.48;100.00
45894;BME280;31603;51.148;16.932;2022-12-18T03:08:22;101927.81;;;-3.48;100.00
45894;BME280;31603;51.148;16.932;2022-12-18T03:11:16;101784.81;;;-4.08;100.00
45894;BME280;31603;51.148;16.932;2022-12-18T03:14:03;101876.88;;;-3.33;100.00
45894;BME280;31603;51.148;16.932;2022-12-18T03:16:41;101915.16;;;-3.11;100.00
45894;BME280;31603;51.148;16.932;2022-12-18T03:19:48;101885.41;;;-3.25;100.00
45894;BME280;31603;51.148;16.932;2022-12-18T03:22:17;101808.91;;;-4.24;100.00
45894;BME280;31603;51.148;16.932;2022-12-18T03:24:56;101888.97;;;-3.42;100.00
45894;BME280;31603;51.148;16.932;2022-12-18T03:27:48;101823.28;;;-4.25;100.00
45894;BME280;31603;51.148;16.932;2022-12-18T03:30:18;101810.84;;;-4.64;100.00
45894;BME280;31603;51.148;16.932;2022-12-18T03:33:07;101907.09;;;-3.99;100.00
45894;BME280;31603;51.148;16.932;2022-12-18T03:36:11;101939.50;;;-3.66;100.00
45894;BME280;31603;51.148;16.932;2022-12-18T03:38:41;101925.03;;;-3.46;100.00
45894;BME280;31603;51.148;16.932;2022-12-18T03:41:23;101809.00;;;-4.44;100.00
45894;BME280;31603;51.148;16.932;2022-12-18T03:44:18;101946.66;;;-3.30;100.00
45894;BME280;31603;51.148;16.932;2022-12-18T03:46:55;101907.38;;;-3.69;100.00
45894;BME280;31603;51.148;16.932;2022-12-18T03:50:06;101906.25;;;-3.82;100.00
45894;BME280;31603;51.148;16.932;2022-12-18T03:52:57;101822.00;;;-4.73;100.00
45894;BME280;31603;51.148;16.932;2022-12-18T03:55:49;101875.38;;;-4.29;100.00
45894;BME280;31603;51.148;16.932;2022-12-18T03:58:20;101939.25;;;-3.98;100.00
45894;BME280;31603;51.148;16.932;2022-12-18T04:01:05;101891.59;;;-3.94;100.00
45894;BME280;31603;51.148;16.932;2022-12-18T04:03:56;101976.06;;;-4.00;100.00
45894;BME280;31603;51.148;16.932;2022-12-18T04:06:37;101926.50;;;-4.68;100.00
45894;BME280;31603;51.148;16.932;2022-12-18T04:09:08;101958.25;;;-4.59;100.00
45894;BME280;31603;51.148;16.932;2022-12-18T04:11:48;101849.44;;;-4.66;100.00
45894;BME280;31603;51.148;16.932;2022-12-18T04:14:17;101821.94;;;-4.52;100.00
45894;BME280;31603;51.148;16.932;2022-12-18T04:16:43;101965.38;;;-3.82;100.00
45894;BME280;31603;51.148;16.932;2022-12-18T04:22:10;101851.38;;;-5.07;100.00
45894;BME280;31603;51.148;16.932;2022-12-18T04:22:20;101975.84;;;-4.72;100.00
45894;BME280;31603;51.148;16.932;2022-12-18T04:25:13;101854.06;;;-5.48;100.00
45894;BME280;31603;51.148;16.932;2022-12-18T04:27:46;101928.25;;;-4.88;100.00
45894;BME280;31603;51.148;16.932;2022-12-18T04:30:14;101969.13;;;-4.42;100.00
45894;BME280;31603;51.148;16.932;2022-12-18T04:32:43;101893.94;;;-5.20;100.00
45894;BME280;31603;51.148;16.932;2022-12-18T04:35:12;101910.56;;;-4.92;100.00
45894;BME280;31603;51.148;16.932;2022-12-18T04:38:01;101993.00;;;-4.36;100.00
45894;BME280;31603;51.148;16.932;2022-12-18T04:40:30;101961.19;;;-4.45;100.00
45894;BME280;31603;51.148;16.932;2022-12-18T04:44:16;101956.81;;;-4.47;100.00
45894;BME280;31603;51.148;16.932;2022-12-18T04:45:44;101948.50;;;-4.80;100.00
45894;BME280;31603;51.148;16.932;2022-12-18T04:48:13;101947.00;;;-4.67;100.00
45894;BME280;31603;51.148;16.932;2022-12-18T04:50:43;101902.19;;;-5.04;100.00
45894;BME280;31603;51.148;16.932;2022-12-18T04:53:15;102011.72;;;-4.34;100.00
45894;BME280;31603;51.148;16.932;2022-12-18T04:55:48;101880.88;;;-5.28;100.00
45894;BME280;31603;51.148;16.932;2022-12-18T04:58:18;101903.41;;;-5.12;100.00
45894;BME280;31603;51.148;16.932;2022-12-18T05:00:44;101964.38;;;-4.55;100.00
45894;BME280;31603;51.148;16.932;2022-12-18T05:03:21;101890.47;;;-5.22;100.00
45894;BME280;31603;51.148;16.932;2022-12-18T05:06:03;101967.06;;;-4.76;100.00
45894;BME280;31603;51.148;16.932;2022-12-18T05:08:32;102008.28;;;-4.17;100.00
45894;BME280;31603;51.148;16.932;2022-12-18T05:11:19;101969.00;;;-4.59;100.00
45894;BME280;31603;51.148;16.932;2022-12-18T05:13:46;101955.34;;;-4.73;100.00
45894;BME280;31603;51.148;16.932;2022-12-18T05:16:33;101945.91;;;-4.43;100.00
45894;BME280;31603;51.148;16.932;2022-12-18T05:19:14;101940.00;;;-4.13;100.00
45894;BME280;31603;51.148;16.932;2022-12-18T05:21:45;101969.75;;;-4.18;100.00
45894;BME280;31603;51.148;16.932;2022-12-18T05:24:35;101877.97;;;-5.23;100.00
45894;BME280;31603;51.148;16.932;2022-12-18T05:27:11;102029.97;;;-4.61;100.00
45894;BME280;31603;51.148;16.932;2022-12-18T05:29:43;102058.31;;;-3.96;100.00
45894;BME280;31603;51.148;16.932;2022-12-18T05:32:13;101953.03;;;-4.62;100.00
45894;BME280;31603;51.148;16.932;2022-12-18T05:35:12;102019.78;;;-4.15;100.00
45894;BME280;31603;51.148;16.932;2022-12-18T05:37:56;101913.72;;;-5.02;100.00
45894;BME280;31603;51.148;16.932;2022-12-18T05:40:34;101978.00;;;-4.60;100.00
45894;BME280;31603;51.148;16.932;2022-12-18T05:43:10;101995.63;;;-4.54;100.00
45894;BME280;31603;51.148;16.932;2022-12-18T05:46:24;102042.84;;;-4.69;100.00
45894;BME280;31603;51.148;16.932;2022-12-18T05:49:00;101931.03;;;-5.72;100.00
45894;BME280;31603;51.148;16.932;2022-12-18T05:51:55;101924.41;;;-5.64;100.00
45894;BME280;31603;51.148;16.932;2022-12-18T05:54:34;102072.63;;;-4.55;100.00
45894;BME280;31603;51.148;16.932;2022-12-18T05:57:10;102071.28;;;-4.65;100.00
45894;BME280;31603;51.148;16.932;2022-12-18T05:59:50;101957.59;;;-5.03;100.00
45894;BME280;31603;51.148;16.932;2022-12-18T06:02:18;101973.06;;;-5.10;100.00
45894;BME280;31603;51.148;16.932;2022-12-18T06:05:04;101920.38;;;-5.32;100.00
45894;BME280;31603;51.148;16.932;2022-12-18T06:07:52;101986.50;;;-4.90;100.00
45894;BME280;31603;51.148;16.932;2022-12-18T06:10:19;101983.19;;;-5.17;100.00
45894;BME280;31603;51.148;16.932;2022-12-18T06:13:02;101923.75;;;-5.69;100.00
45894;BME280;31603;51.148;16.932;2022-12-18T06:15:59;102087.28;;;-4.82;100.00
45894;BME280;31603;51.148;16.932;2022-12-18T06:18:34;102023.03;;;-5.50;100.00
45894;BME280;31603;51.148;16.932;2022-12-18T06:21:01;101954.56;;;-5.37;100.00
45894;BME280;31603;51.148;16.932;2022-12-18T06:23:34;101958.50;;;-5.67;100.00
45894;BME280;31603;51.148;16.932;2022-12-18T06:26:21;101935.56;;;-5.74;100.00
45894;BME280;31603;51.148;16.932;2022-12-18T06:29:09;101962.28;;;-5.29;100.00
45894;BME280;31603;51.148;16.932;2022-12-18T06:31:45;102054.38;;;-4.47;100.00
45894;BME280;31603;51.148;16.932;2022-12-18T06:34:16;102056.91;;;-4.23;100.00
45894;BME280;31603;51.148;16.932;2022-12-18T06:36:42;102121.75;;;-4.32;100.00
45894;BME280;31603;51.148;16.932;2022-12-18T06:39:11;102023.50;;;-5.18;100.00
45894;BME280;31603;51.148;16.932;2022-12-18T06:41:45;102044.25;;;-5.23;100.00
45894;BME280;31603;51.148;16.932;2022-12-18T06:44:15;102150.38;;;-4.11;100.00
45894;BME280;31603;51.148;16.932;2022-12-18T06:46:44;102040.34;;;-4.74;100.00
45894;BME280;31603;51.148;16.932;2022-12-18T06:49:15;102006.75;;;-5.03;100.00
45894;BME280;31603;51.148;16.932;2022-12-18T06:52:08;102096.94;;;-4.78;100.00
45894;BME280;31603;51.148;16.932;2022-12-18T06:54:35;102038.41;;;-4.91;100.00
45894;BME280;31603;51.148;16.932;2022-12-18T06:57:10;102106.06;;;-4.42;100.00
45894;BME280;31603;51.148;16.932;2022-12-18T06:59:51;101994.06;;;-5.62;100.00
45894;BME280;31603;51.148;16.932;2022-12-18T07:02:22;102061.69;;;-4.91;100.00
45894;BME280;31603;51.148;16.932;2022-12-18T07:05:10;102000.69;;;-5.28;100.00
45894;BME280;31603;51.148;16.932;2022-12-18T07:07:57;102163.69;;;-4.28;100.00
45894;BME280;31603;51.148;16.932;2022-12-18T07:10:42;102152.38;;;-4.37;100.00
45894;BME280;31603;51.148;16.932;2022-12-18T07:13:24;102104.56;;;-4.90;100.00
45894;BME280;31603;51.148;16.932;2022-12-18T07:16:13;101993.63;;;-5.73;100.00
45894;BME280;31603;51.148;16.932;2022-12-18T07:18:42;101998.09;;;-5.74;100.00
45894;BME280;31603;51.148;16.932;2022-12-18T07:21:33;102089.25;;;-5.08;100.00
45894;BME280;31603;51.148;16.932;2022-12-18T07:23:59;102084.53;;;-5.03;100.00
45894;BME280;31603;51.148;16.932;2022-12-18T07:26:32;102068.41;;;-5.23;100.00
45894;BME280;31603;51.148;16.932;2022-12-18T07:29:04;102173.03;;;-4.59;100.00
45894;BME280;31603;51.148;16.932;2022-12-18T07:31:50;102140.78;;;-4.79;100.00
45894;BME280;31603;51.148;16.932;2022-12-18T07:34:18;102094.31;;;-5.22;100.00
45894;BME280;31603;51.148;16.932;2022-12-18T07:36:45;102186.13;;;-4.94;100.00
45894;BME280;31603;51.148;16.932;2022-12-18T07:39:50;102187.91;;;-4.94;100.00
45894;BME280;31603;51.148;16.932;2022-12-18T07:42:27;102193.16;;;-4.69;100.00
45894;BME280;31603;51.148;16.932;2022-12-18T07:45:03;102089.31;;;-5.32;100.00
45894;BME280;31603;51.148;16.932;2022-12-18T07:47:48;102036.84;;;-5.83;100.00
45894;BME280;31603;51.148;16.932;2022-12-18T07:50:16;102114.56;;;-5.59;100.00
45894;BME280;31603;51.148;16.932;2022-12-18T07:52:43;102163.66;;;-5.13;100.00
45894;BME280;31603;51.148;16.932;2022-12-18T07:55:09;102138.00;;;-4.98;100.00
45894;BME280;31603;51.148;16.932;2022-12-18T07:58:02;102137.38;;;-5.05;100.00
45894;BME280;31603;51.148;16.932;2022-12-18T08:00:31;102153.19;;;-4.55;100.00
45894;BME280;31603;51.148;16.932;2022-12-18T08:03:23;102057.56;;;-5.42;100.00
45894;BME280;31603;51.148;16.932;2022-12-18T08:06:08;102077.69;;;-5.54;100.00
45894;BME280;31603;51.148;16.932;2022-12-18T08:08:35;102144.41;;;-4.80;100.00
45894;BME280;31603;51.148;16.932;2022-12-18T08:11:19;102131.41;;;-4.90;100.00
45894;BME280;31603;51.148;16.932;2022-12-18T08:14:07;102147.97;;;-4.80;100.00
45894;BME280;31603;51.148;16.932;2022-12-18T08:16:34;102221.00;;;-4.50;100.00
45894;BME280;31603;51.148;16.932;2022-12-18T08:19:17;102219.97;;;-4.47;100.00
45894;BME280;31603;51.148;16.932;2022-12-18T08:21:43;102206.59;;;-4.27;100.00
45894;BME280;31603;51.148;16.932;2022-12-18T08:24:19;102217.13;;;-4.43;100.00
45894;BME280;31603;51.148;16.932;2022-12-18T08:26:47;102128.31;;;-5.23;100.00
45894;BME280;31603;51.148;16.932;2022-12-18T08:29:26;102236.41;;;-4.55;100.00
45894;BME280;31603;51.148;16.932;2022-12-18T08:32:11;102184.78;;;-5.27;100.00
45894;BME280;31603;51.148;16.932;2022-12-18T08:34:41;102162.47;;;-5.06;100.00
45894;BME280;31603;51.148;16.932;2022-12-18T08:37:08;102146.75;;;-5.15;100.00
45894;BME280;31603;51.148;16.932;2022-12-18T08:40:01;102080.38;;;-5.54;100.00
45894;BME280;31603;51.148;16.932;2022-12-18T08:42:29;102195.22;;;-4.98;100.00
45894;BME280;31603;51.148;16.932;2022-12-18T08:45:13;102175.44;;;-5.17;100.00
45894;BME280;31603;51.148;16.932;2022-12-18T08:48:24;102108.63;;;-5.01;100.00
45894;BME280;31603;51.148;16.932;2022-12-18T08:50:55;102185.81;;;-4.44;100.00
45894;BME280;31603;51.148;16.932;2022-12-18T08:53:32;102234.00;;;-3.98;100.00
45894;BME280;31603;51.148;16.932;2022-12-18T08:56:21;102269.38;;;-4.29;100.00
45894;BME280;31603;51.148;16.932;2022-12-18T08:59:21;102123.97;;;-5.05;100.00
45894;BME280;31603;51.148;16.932;2022-12-18T09:01:46;102235.94;;;-4.22;100.00
45894;BME280;31603;51.148;16.932;2022-12-18T09:04:43;102198.72;;;-3.91;100.00
45894;BME280;31603;51.148;16.932;2022-12-18T09:10:27;102164.97;;;-4.17;100.00
45894;BME280;31603;51.148;16.932;2022-12-18T09:13:01;102125.53;;;-4.37;100.00
45894;BME280;31603;51.148;16.932;2022-12-18T09:15:34;102092.63;;;-4.62;100.00
45894;BME280;31603;51.148;16.932;2022-12-18T09:18:23;102169.19;;;-4.31;100.00
45894;BME280;31603;51.148;16.932;2022-12-18T09:21:14;102124.84;;;-3.82;100.00
45894;BME280;31603;51.148;16.932;2022-12-18T09:23:56;102058.34;;;-4.16;100.00
45894;BME280;31603;51.148;16.932;2022-12-18T09:26:37;102094.97;;;-4.14;100.00
45894;BME280;31603;51.148;16.932;2022-12-18T09:29:26;102167.69;;;-3.58;100.00
45894;BME280;31603;51.148;16.932;2022-12-18T09:32:07;102124.81;;;-4.01;100.00
45894;BME280;31603;51.148;16.932;2022-12-18T09:34:38;102163.47;;;-3.45;100.00
45894;BME280;31603;51.148;16.932;2022-12-18T09:37:20;102118.38;;;-3.97;100.00
45894;BME280;31603;51.148;16.932;2022-12-18T09:40:19;102205.81;;;-3.30;100.00
45894;BME280;31603;51.148;16.932;2022-12-18T09:44:09;102161.13;;;-3.53;100.00
45894;BME280;31603;51.148;16.932;2022-12-18T09:46:10;102158.59;;;-3.56;100.00
45894;BME280;31603;51.148;16.932;2022-12-18T09:48:44;102161.34;;;-3.76;100.00
45894;BME280;31603;51.148;16.932;2022-12-18T09:51:54;102195.59;;;-3.61;100.00
45894;BME280;31603;51.148;16.932;2022-12-18T09:54:36;102121.03;;;-3.76;100.00
45894;BME280;31603;51.148;16.932;2022-12-18T09:57:20;102078.13;;;-4.17;100.00
45894;BME280;31603;51.148;16.932;2022-12-18T10:00:04;102096.09;;;-3.99;100.00
45894;BME280;31603;51.148;16.932;2022-12-18T10:02:34;102190.78;;;-3.73;100.00
45894;BME280;31603;51.148;16.932;2022-12-18T10:05:04;102181.16;;;-3.79;100.00
45894;BME280;31603;51.148;16.932;2022-12-18T10:07:58;102142.16;;;-3.88;100.00
45894;BME280;31603;51.148;16.932;2022-12-18T10:10:43;102215.25;;;-3.21;100.00
45894;BME280;31603;51.148;16.932;2022-12-18T10:13:31;102159.75;;;-3.80;100.00
45894;BME280;31603;51.148;16.932;2022-12-18T10:16:11;102141.84;;;-3.81;100.00
45894;BME280;31603;51.148;16.932;2022-12-18T10:19:01;102130.38;;;-4.24;100.00
45894;BME280;31603;51.148;16.932;2022-12-18T10:21:58;102097.66;;;-4.34;100.00
45894;BME280;31603;51.148;16.932;2022-12-18T10:24:42;102086.56;;;-4.88;100.00
45894;BME280;31603;51.148;16.932;2022-12-18T10:27:26;102145.41;;;-4.61;100.00
45894;BME280;31603;51.148;16.932;2022-12-18T10:30:15;102201.81;;;-4.00;100.00
45894;BME280;31603;51.148;16.932;2022-12-18T10:32:47;102147.88;;;-4.16;100.00
45894;BME280;31603;51.148;16.932;2022-12-18T10:35:26;102206.41;;;-4.02;100.00
45894;BME280;31603;51.148;16.932;2022-12-18T10:38:21;102145.28;;;-4.38;100.00
45894;BME280;31603;51.148;16.932;2022-12-18T10:41:22;102064.44;;;-4.72;100.00
45894;BME280;31603;51.148;16.932;2022-12-18T10:44:19;102203.81;;;-3.45;100.00
45894;BME280;31603;51.148;16.932;2022-12-18T10:46:48;102191.16;;;-3.05;100.00
45894;BME280;31603;51.148;16.932;2022-12-18T10:49:31;102055.94;;;-4.22;100.00
45894;BME280;31603;51.148;16.932;2022-12-18T10:52:15;102029.13;;;-4.43;100.00
45894;BME280;31603;51.148;16.932;2022-12-18T10:55:01;102136.88;;;-3.70;100.00
45894;BME280;31603;51.148;16.932;2022-12-18T10:57:48;102156.09;;;-3.79;100.00
45894;BME280;31603;51.148;16.932;2022-12-18T11:00:26;102183.94;;;-4.01;100.00
45894;BME280;31603;51.148;16.932;2022-12-18T11:02:57;102192.59;;;-3.74;100.00
45894;BME280;31603;51.148;16.932;2022-12-18T11:05:30;102176.31;;;-4.10;100.00
45894;BME280;31603;51.148;16.932;2022-12-18T11:08:02;102073.16;;;-4.88;100.00
45894;BME280;31603;51.148;16.932;2022-12-18T11:10:39;102213.25;;;-3.95;100.00
45894;BME280;31603;51.148;16.932;2022-12-18T11:13:18;102218.56;;;-3.54;100.00
45894;BME280;31603;51.148;16.932;2022-12-18T11:15:54;102206.38;;;-3.42;100.00
45894;BME280;31603;51.148;16.932;2022-12-18T11:18:28;102123.41;;;-4.28;100.00
45894;BME280;31603;51.148;16.932;2022-12-18T11:21:05;102184.56;;;-3.55;100.00
45894;BME280;31603;51.148;16.932;2022-12-18T11:26:20;102149.38;;;-3.69;100.00
45894;BME280;31603;51.148;16.932;2022-12-18T11:30:06;102150.84;;;-4.22;100.00
45894;BME280;31603;51.148;16.932;2022-12-18T11:31:54;102215.78;;;-3.71;100.00
45894;BME280;31603;51.148;16.932;2022-12-18T11:34:43;102206.66;;;-3.48;100.00
45894;BME280;31603;51.148;16.932;2022-12-18T11:37:33;102210.81;;;-3.80;100.00
45894;BME280;31603;51.148;16.932;2022-12-18T11:40:14;102121.19;;;-4.00;100.00
45894;BME280;31603;51.148;16.932;2022-12-18T11:42:46;102159.63;;;-3.77;100.00
45894;BME280;31603;51.148;16.932;2022-12-18T11:45:26;102194.22;;;-3.90;100.00
45894;BME280;31603;51.148;16.932;2022-12-18T11:48:16;102123.53;;;-4.52;100.00
45894;BME280;31603;51.148;16.932;2022-12-18T11:50:54;102053.38;;;-4.85;100.00
45894;BME280;31603;51.148;16.932;2022-12-18T11:53:24;102131.41;;;-4.08;100.00
45894;BME280;31603;51.148;16.932;2022-12-18T11:56:36;102087.00;;;-4.56;100.00
45894;BME280;31603;51.148;16.932;2022-12-18T11:59:21;102107.50;;;-4.53;100.00
45894;BME280;31603;51.148;16.932;2022-12-18T12:02:15;102215.38;;;-3.82;100.00
45894;BME280;31603;51.148;16.932;2022-12-18T12:05:00;102209.47;;;-3.91;100.00
45894;BME280;31603;51.148;16.932;2022-12-18T12:07:50;102106.53;;;-4.32;100.00
45894;BME280;31603;51.148;16.932;2022-12-18T12:10:39;102102.75;;;-4.69;100.00
45894;BME280;31603;51.148;16.932;2022-12-18T12:13:36;102133.38;;;-3.72;100.00
45894;BME280;31603;51.148;16.932;2022-12-18T12:16:21;102079.16;;;-4.21;100.00
45894;BME280;31603;51.148;16.932;2022-12-18T12:20:49;102180.13;;;-4.16;100.00
45894;BME280;31603;51.148;16.932;2022-12-18T12:22:33;102037.06;;;-4.60;100.00
45894;BME280;31603;51.148;16.932;2022-12-18T12:25:19;102208.75;;;-3.94;100.00
45894;BME280;31603;51.148;16.932;2022-12-18T12:28:01;102163.94;;;-4.14;100.00
45894;BME280;31603;51.148;16.932;2022-12-18T12:30:48;102036.41;;;-4.86;100.00
45894;BME280;31603;51.148;16.932;2022-12-18T12:34:41;102169.66;;;-3.43;100.00
45894;BME280;31603;51.148;16.932;2022-12-18T12:36:45;102186.72;;;-3.06;100.00
45894;BME280;31603;51.148;16.932;2022-12-18T12:39:27;102127.94;;;-2.97;100.00
45894;BME280;31603;51.148;16.932;2022-12-18T12:42:12;102165.50;;;-3.12;100.00
45894;BME280;31603;51.148;16.932;2022-12-18T12:45:02;102193.41;;;-2.96;100.00
45894;BME280;31603;51.148;16.932;2022-12-18T12:47:48;102159.28;;;-2.96;100.00
45894;BME280;31603;51.148;16.932;2022-12-18T12:50:21;102197.22;;;-3.00;100.00
45894;BME280;31603;51.148;16.932;2022-12-18T12:53:06;102041.84;;;-3.88;100.00
45894;BME280;31603;51.148;16.932;2022-12-18T12:56:15;102206.31;;;-3.22;100.00
45894;BME280;31603;51.148;16.932;2022-12-18T12:58:46;102059.97;;;-4.12;100.00
45894;BME280;31603;51.148;16.932;2022-12-18T13:01:32;102195.59;;;-3.42;100.00
45894;BME280;31603;51.148;16.932;2022-12-18T13:04:23;102098.31;;;-3.90;100.00
45894;BME280;31603;51.148;16.932;2022-12-18T13:07:00;102115.66;;;-3.76;100.00
45894;BME280;31603;51.148;16.932;2022-12-18T13:10:24;102096.16;;;-3.81;100.00
45894;BME280;31603;51.148;16.932;2022-12-18T13:13:09;102036.66;;;-4.51;100.00
45894;BME280;31603;51.148;16.932;2022-12-18T13:16:10;102203.53;;;-3.78;100.00
45894;BME280;31603;51.148;16.932;2022-12-18T13:18:36;102165.91;;;-3.78;100.00
45894;BME280;31603;51.148;16.932;2022-12-18T13:21:16;102084.81;;;-4.46;100.00
45894;BME280;31603;51.148;16.932;2022-12-18T13:24:14;102128.69;;;-4.06;100.00
45894;BME280;31603;51.148;16.932;2022-12-18T13:26:46;102163.53;;;-3.84;100.00
45894;BME280;31603;51.148;16.932;2022-12-18T13:29:46;102157.56;;;-3.53;100.00
45894;BME280;31603;51.148;16.932;2022-12-18T13:32:25;102049.53;;;-4.79;100.00
45894;BME280;31603;51.148;16.932;2022-12-18T13:38:23;102052.06;;;-5.17;100.00
45894;BME280;31603;51.148;16.932;2022-12-18T13:41:00;102166.56;;;-4.53;100.00
45894;BME280;31603;51.148;16.932;2022-12-18T13:43:54;102051.25;;;-5.19;100.00
45894;BME280;31603;51.148;16.932;2022-12-18T13:46:30;102165.66;;;-4.54;100.00
45894;BME280;31603;51.148;16.932;2022-12-18T13:49:28;102131.94;;;-4.81;100.00
45894;BME280;31603;51.148;16.932;2022-12-18T13:52:17;102168.91;;;-4.46;100.00